sensor_id;sensor_type;location;lat;lon;timestamp;P1;durP1;ratioP1;P2;durP2;ratioP2
55728;SDS011;41633;39.720;2.910;2023-07-02T00:01:47;10.05;;;4.43;;
55728;SDS011;41633;39.720;2.910;2023-07-02T00:04:13;15.15;;;10.60;;
55728;SDS011;41633;39.720;2.910;2023-07-02T00:06:44;11.98;;;7.30;;
55728;SDS011;41633;39.720;2.910;2023-07-02T00:09:10;11.60;;;6.03;;
55728;SDS011;41633;39.720;2.910;2023-07-02T00:11:40;9.93;;;4.70;;
55728;SDS011;41633;39.720;2.910;2023-07-02T00:14:07;8.95;;;4.30;;
55728;SDS011;41633;39.720;2.910;2023-07-02T00:16:34;9.25;;;4.38;;
55728;SDS011;41633;39.720;2.910;2023-07-02T00:19:01;8.93;;;4.05;;
55728;SDS011;41633;39.720;2.910;2023-07-02T00:21:27;8.27;;;4.00;;
55728;SDS011;41633;39.720;2.910;2023-07-02T00:23:56;10.25;;;4.20;;
55728;SDS011;41633;39.720;2.910;2023-07-02T00:26:23;10.40;;;4.40;;
55728;SDS011;41633;39.720;2.910;2023-07-02T00:28:50;11.00;;;5.05;;
55728;SDS011;41633;39.720;2.910;2023-07-02T00:31:16;10.27;;;4.63;;
55728;SDS011;41633;39.720;2.910;2023-07-02T00:33:42;10.50;;;4.70;;
55728;SDS011;41633;39.720;2.910;2023-07-02T00:36:08;10.25;;;4.70;;
55728;SDS011;41633;39.720;2.910;2023-07-02T00:38:43;11.65;;;4.97;;
55728;SDS011;41633;39.720;2.910;2023-07-02T00:41:10;10.25;;;5.10;;
55728;SDS011;41633;39.720;2.910;2023-07-02T00:43:36;10.93;;;5.13;;
55728;SDS011;41633;39.720;2.910;2023-07-02T00:46:08;11.45;;;5.00;;
55728;SDS011;41633;39.720;2.910;2023-07-02T00:48:35;10.52;;;4.78;;
55728;SDS011;41633;39.720;2.910;2023-07-02T00:51:01;12.98;;;5.07;;
55728;SDS011;41633;39.720;2.910;2023-07-02T00:53:27;10.55;;;5.10;;
55728;SDS011;41633;39.720;2.910;2023-07-02T00:55:53;14.50;;;8.10;;
55728;SDS011;41633;39.720;2.910;2023-07-02T00:58:19;13.82;;;7.88;;
55728;SDS011;41633;39.720;2.910;2023-07-02T01:00:46;13.45;;;6.90;;
55728;SDS011;41633;39.720;2.910;2023-07-02T01:03:12;12.10;;;5.85;;
55728;SDS011;41633;39.720;2.910;2023-07-02T01:05:38;11.48;;;5.63;;
55728;SDS011;41633;39.720;2.910;2023-07-02T01:08:06;11.25;;;5.00;;
55728;SDS011;41633;39.720;2.910;2023-07-02T01:10:33;10.75;;;5.00;;
55728;SDS011;41633;39.720;2.910;2023-07-02T01:13:01;10.73;;;5.18;;
55728;SDS011;41633;39.720;2.910;2023-07-02T01:15:27;9.50;;;5.00;;
55728;SDS011;41633;39.720;2.910;2023-07-02T01:17:54;10.00;;;5.03;;
55728;SDS011;41633;39.720;2.910;2023-07-02T01:20:20;11.85;;;5.00;;
55728;SDS011;41633;39.720;2.910;2023-07-02T01:22:48;12.15;;;4.85;;
55728;SDS011;41633;39.720;2.910;2023-07-02T01:25:17;11.43;;;5.30;;
55728;SDS011;41633;39.720;2.910;2023-07-02T01:27:50;10.65;;;5.00;;
55728;SDS011;41633;39.720;2.910;2023-07-02T01:30:20;9.70;;;4.90;;
55728;SDS011;41633;39.720;2.910;2023-07-02T01:32:47;13.15;;;5.07;;
55728;SDS011;41633;39.720;2.910;2023-07-02T01:35:13;10.50;;;4.57;;
55728;SDS011;41633;39.720;2.910;2023-07-02T01:37:41;12.77;;;5.75;;
55728;SDS011;41633;39.720;2.910;2023-07-02T01:40:07;10.10;;;5.10;;
55728;SDS011;41633;39.720;2.910;2023-07-02T01:42:34;11.23;;;4.70;;
55728;SDS011;41633;39.720;2.910;2023-07-02T01:45:00;11.52;;;4.93;;
55728;SDS011;41633;39.720;2.910;2023-07-02T01:47:26;9.57;;;4.43;;
55728;SDS011;41633;39.720;2.910;2023-07-02T01:49:52;9.60;;;4.72;;
55728;SDS011;41633;39.720;2.910;2023-07-02T01:52:19;11.70;;;5.35;;
55728;SDS011;41633;39.720;2.910;2023-07-02T01:54:45;10.43;;;5.57;;
55728;SDS011;41633;39.720;2.910;2023-07-02T01:57:12;12.02;;;5.70;;
55728;SDS011;41633;39.720;2.910;2023-07-02T01:59:38;11.05;;;5.97;;
55728;SDS011;41633;39.720;2.910;2023-07-02T02:02:05;12.57;;;6.10;;
55728;SDS011;41633;39.720;2.910;2023-07-02T02:04:31;11.40;;;5.80;;
55728;SDS011;41633;39.720;2.910;2023-07-02T02:06:57;10.63;;;5.30;;
55728;SDS011;41633;39.720;2.910;2023-07-02T02:09:23;11.40;;;5.07;;
55728;SDS011;41633;39.720;2.910;2023-07-02T02:11:49;12.32;;;6.95;;
55728;SDS011;41633;39.720;2.910;2023-07-02T02:14:17;11.73;;;5.85;;
55728;SDS011;41633;39.720;2.910;2023-07-02T02:16:44;10.25;;;5.18;;
55728;SDS011;41633;39.720;2.910;2023-07-02T02:19:10;10.13;;;5.05;;
55728;SDS011;41633;39.720;2.910;2023-07-02T02:21:38;12.80;;;5.15;;
55728;SDS011;41633;39.720;2.910;2023-07-02T02:24:05;12.20;;;5.72;;
55728;SDS011;41633;39.720;2.910;2023-07-02T02:26:32;14.45;;;6.88;;
55728;SDS011;41633;39.720;2.910;2023-07-02T02:28:58;12.43;;;5.72;;
55728;SDS011;41633;39.720;2.910;2023-07-02T02:31:24;10.20;;;5.25;;
55728;SDS011;41633;39.720;2.910;2023-07-02T02:33:51;10.07;;;4.45;;
55728;SDS011;41633;39.720;2.910;2023-07-02T02:36:17;9.93;;;4.50;;
55728;SDS011;41633;39.720;2.910;2023-07-02T02:38:43;9.38;;;4.30;;
55728;SDS011;41633;39.720;2.910;2023-07-02T02:41:09;10.35;;;4.38;;
55728;SDS011;41633;39.720;2.910;2023-07-02T02:43:35;9.95;;;4.80;;
55728;SDS011;41633;39.720;2.910;2023-07-02T02:46:01;11.75;;;5.05;;
55728;SDS011;41633;39.720;2.910;2023-07-02T02:48:28;10.32;;;4.72;;
55728;SDS011;41633;39.720;2.910;2023-07-02T02:50:54;10.35;;;4.68;;
55728;SDS011;41633;39.720;2.910;2023-07-02T02:53:20;12.35;;;4.72;;
55728;SDS011;41633;39.720;2.910;2023-07-02T02:55:46;10.07;;;4.20;;
55728;SDS011;41633;39.720;2.910;2023-07-02T02:58:13;10.45;;;4.55;;
55728;SDS011;41633;39.720;2.910;2023-07-02T03:00:39;9.23;;;4.25;;
55728;SDS011;41633;39.720;2.910;2023-07-02T03:03:09;10.20;;;4.15;;
55728;SDS011;41633;39.720;2.910;2023-07-02T03:05:35;9.40;;;4.30;;
55728;SDS011;41633;39.720;2.910;2023-07-02T03:08:01;9.48;;;4.15;;
55728;SDS011;41633;39.720;2.910;2023-07-02T03:10:28;8.20;;;3.72;;
55728;SDS011;41633;39.720;2.910;2023-07-02T03:12:54;8.27;;;3.72;;
55728;SDS011;41633;39.720;2.910;2023-07-02T03:15:20;8.20;;;3.83;;
55728;SDS011;41633;39.720;2.910;2023-07-02T03:17:47;8.70;;;3.60;;
55728;SDS011;41633;39.720;2.910;2023-07-02T03:20:13;9.73;;;3.50;;
55728;SDS011;41633;39.720;2.910;2023-07-02T03:22:39;7.93;;;3.08;;
55728;SDS011;41633;39.720;2.910;2023-07-02T03:25:05;9.82;;;3.97;;
55728;SDS011;41633;39.720;2.910;2023-07-02T03:27:32;8.50;;;3.75;;
55728;SDS011;41633;39.720;2.910;2023-07-02T03:29:58;8.45;;;3.67;;
55728;SDS011;41633;39.720;2.910;2023-07-02T03:32:24;8.32;;;3.60;;
55728;SDS011;41633;39.720;2.910;2023-07-02T03:34:50;9.30;;;3.75;;
55728;SDS011;41633;39.720;2.910;2023-07-02T03:37:17;9.63;;;3.95;;
55728;SDS011;41633;39.720;2.910;2023-07-02T03:39:43;7.35;;;3.25;;
55728;SDS011;41633;39.720;2.910;2023-07-02T03:42:09;7.90;;;3.20;;
55728;SDS011;41633;39.720;2.910;2023-07-02T03:44:35;9.43;;;3.90;;
55728;SDS011;41633;39.720;2.910;2023-07-02T03:47:01;8.13;;;3.50;;
55728;SDS011;41633;39.720;2.910;2023-07-02T03:49:27;7.65;;;3.17;;
55728;SDS011;41633;39.720;2.910;2023-07-02T03:51:54;9.40;;;3.80;;
55728;SDS011;41633;39.720;2.910;2023-07-02T03:54:20;6.80;;;3.00;;
55728;SDS011;41633;39.720;2.910;2023-07-02T03:56:46;7.85;;;3.50;;
55728;SDS011;41633;39.720;2.910;2023-07-02T03:59:12;8.77;;;3.50;;
55728;SDS011;41633;39.720;2.910;2023-07-02T04:01:39;9.27;;;3.65;;
55728;SDS011;41633;39.720;2.910;2023-07-02T04:04:05;8.27;;;3.80;;
55728;SDS011;41633;39.720;2.910;2023-07-02T04:06:31;8.90;;;3.58;;
55728;SDS011;41633;39.720;2.910;2023-07-02T04:08:59;9.30;;;3.63;;
55728;SDS011;41633;39.720;2.910;2023-07-02T04:11:25;8.15;;;3.88;;
55728;SDS011;41633;39.720;2.910;2023-07-02T04:13:51;9.23;;;3.25;;
55728;SDS011;41633;39.720;2.910;2023-07-02T04:16:17;7.72;;;3.15;;
55728;SDS011;41633;39.720;2.910;2023-07-02T04:18:43;7.80;;;3.30;;
55728;SDS011;41633;39.720;2.910;2023-07-02T04:21:10;6.80;;;2.80;;
55728;SDS011;41633;39.720;2.910;2023-07-02T04:23:36;9.55;;;3.00;;
55728;SDS011;41633;39.720;2.910;2023-07-02T04:26:02;7.43;;;3.15;;
55728;SDS011;41633;39.720;2.910;2023-07-02T04:28:28;7.57;;;3.08;;
55728;SDS011;41633;39.720;2.910;2023-07-02T04:30:54;8.00;;;3.20;;
55728;SDS011;41633;39.720;2.910;2023-07-02T04:33:20;7.40;;;2.90;;
55728;SDS011;41633;39.720;2.910;2023-07-02T04:35:47;7.65;;;3.30;;
55728;SDS011;41633;39.720;2.910;2023-07-02T04:38:13;7.10;;;3.03;;
55728;SDS011;41633;39.720;2.910;2023-07-02T04:40:39;9.15;;;3.50;;
55728;SDS011;41633;39.720;2.910;2023-07-02T04:43:09;8.45;;;2.95;;
55728;SDS011;41633;39.720;2.910;2023-07-02T04:45:35;6.90;;;2.80;;
55728;SDS011;41633;39.720;2.910;2023-07-02T04:48:05;5.80;;;2.42;;
55728;SDS011;41633;39.720;2.910;2023-07-02T04:50:31;8.07;;;3.17;;
55728;SDS011;41633;39.720;2.910;2023-07-02T04:52:57;8.40;;;3.00;;
55728;SDS011;41633;39.720;2.910;2023-07-02T04:55:23;8.25;;;3.10;;
55728;SDS011;41633;39.720;2.910;2023-07-02T04:57:49;8.50;;;3.20;;
55728;SDS011;41633;39.720;2.910;2023-07-02T05:00:16;8.23;;;3.10;;
55728;SDS011;41633;39.720;2.910;2023-07-02T05:02:42;8.90;;;3.00;;
55728;SDS011;41633;39.720;2.910;2023-07-02T05:05:08;7.30;;;3.00;;
55728;SDS011;41633;39.720;2.910;2023-07-02T05:07:34;8.27;;;2.83;;
55728;SDS011;41633;39.720;2.910;2023-07-02T05:10:01;10.82;;;3.50;;
55728;SDS011;41633;39.720;2.910;2023-07-02T05:12:27;7.70;;;2.33;;
55728;SDS011;41633;39.720;2.910;2023-07-02T05:14:53;9.35;;;2.72;;
55728;SDS011;41633;39.720;2.910;2023-07-02T05:17:19;8.82;;;3.00;;
55728;SDS011;41633;39.720;2.910;2023-07-02T05:19:45;8.35;;;3.30;;
55728;SDS011;41633;39.720;2.910;2023-07-02T05:22:11;7.28;;;3.00;;
55728;SDS011;41633;39.720;2.910;2023-07-02T05:24:37;7.88;;;2.80;;
55728;SDS011;41633;39.720;2.910;2023-07-02T05:27:06;6.95;;;2.88;;
55728;SDS011;41633;39.720;2.910;2023-07-02T05:29:32;7.03;;;2.75;;
55728;SDS011;41633;39.720;2.910;2023-07-02T05:31:58;8.68;;;3.13;;
55728;SDS011;41633;39.720;2.910;2023-07-02T05:34:24;8.13;;;3.50;;
55728;SDS011;41633;39.720;2.910;2023-07-02T05:36:50;7.35;;;2.97;;
55728;SDS011;41633;39.720;2.910;2023-07-02T05:39:16;7.47;;;3.10;;
55728;SDS011;41633;39.720;2.910;2023-07-02T05:41:43;6.15;;;2.40;;
55728;SDS011;41633;39.720;2.910;2023-07-02T05:44:09;7.10;;;2.85;;
55728;SDS011;41633;39.720;2.910;2023-07-02T05:46:35;7.88;;;2.90;;
55728;SDS011;41633;39.720;2.910;2023-07-02T05:49:01;7.93;;;2.97;;
55728;SDS011;41633;39.720;2.910;2023-07-02T05:51:27;7.28;;;2.92;;
55728;SDS011;41633;39.720;2.910;2023-07-02T05:53:53;6.03;;;2.30;;
55728;SDS011;41633;39.720;2.910;2023-07-02T05:56:19;6.18;;;2.50;;
55728;SDS011;41633;39.720;2.910;2023-07-02T05:58:46;7.65;;;3.00;;
55728;SDS011;41633;39.720;2.910;2023-07-02T06:01:12;7.07;;;3.03;;
55728;SDS011;41633;39.720;2.910;2023-07-02T06:03:39;8.18;;;3.03;;
55728;SDS011;41633;39.720;2.910;2023-07-02T06:06:05;7.78;;;3.10;;
55728;SDS011;41633;39.720;2.910;2023-07-02T06:08:31;7.00;;;2.72;;
55728;SDS011;41633;39.720;2.910;2023-07-02T06:10:57;7.45;;;3.08;;
55728;SDS011;41633;39.720;2.910;2023-07-02T06:13:23;7.07;;;3.00;;
55728;SDS011;41633;39.720;2.910;2023-07-02T06:15:50;10.07;;;3.25;;
55728;SDS011;41633;39.720;2.910;2023-07-02T06:18:16;7.25;;;2.90;;
55728;SDS011;41633;39.720;2.910;2023-07-02T06:20:42;6.50;;;2.80;;
55728;SDS011;41633;39.720;2.910;2023-07-02T06:23:08;6.93;;;2.67;;
55728;SDS011;41633;39.720;2.910;2023-07-02T06:25:35;8.32;;;3.20;;
55728;SDS011;41633;39.720;2.910;2023-07-02T06:28:01;7.72;;;2.65;;
55728;SDS011;41633;39.720;2.910;2023-07-02T06:30:27;7.70;;;3.03;;
55728;SDS011;41633;39.720;2.910;2023-07-02T06:32:53;7.60;;;3.17;;
55728;SDS011;41633;39.720;2.910;2023-07-02T06:35:20;9.07;;;3.25;;
55728;SDS011;41633;39.720;2.910;2023-07-02T06:37:46;8.20;;;3.30;;
55728;SDS011;41633;39.720;2.910;2023-07-02T06:40:12;10.00;;;3.78;;
55728;SDS011;41633;39.720;2.910;2023-07-02T06:42:39;8.55;;;3.20;;
55728;SDS011;41633;39.720;2.910;2023-07-02T06:45:06;10.07;;;3.67;;
55728;SDS011;41633;39.720;2.910;2023-07-02T06:47:32;9.40;;;3.75;;
55728;SDS011;41633;39.720;2.910;2023-07-02T06:49:58;8.05;;;3.25;;
55728;SDS011;41633;39.720;2.910;2023-07-02T06:52:24;8.27;;;3.10;;
55728;SDS011;41633;39.720;2.910;2023-07-02T06:54:51;8.85;;;3.67;;
55728;SDS011;41633;39.720;2.910;2023-07-02T06:57:17;7.35;;;2.95;;
55728;SDS011;41633;39.720;2.910;2023-07-02T06:59:43;8.43;;;3.55;;
55728;SDS011;41633;39.720;2.910;2023-07-02T07:02:09;7.90;;;3.13;;
55728;SDS011;41633;39.720;2.910;2023-07-02T07:04:35;7.63;;;2.92;;
55728;SDS011;41633;39.720;2.910;2023-07-02T07:07:02;8.38;;;3.17;;
55728;SDS011;41633;39.720;2.910;2023-07-02T07:09:31;9.07;;;3.60;;
55728;SDS011;41633;39.720;2.910;2023-07-02T07:11:58;8.90;;;3.63;;
55728;SDS011;41633;39.720;2.910;2023-07-02T07:14:24;9.27;;;3.60;;
55728;SDS011;41633;39.720;2.910;2023-07-02T07:16:50;9.82;;;3.58;;
55728;SDS011;41633;39.720;2.910;2023-07-02T07:19:17;10.20;;;3.72;;
55728;SDS011;41633;39.720;2.910;2023-07-02T07:21:43;8.70;;;3.90;;
55728;SDS011;41633;39.720;2.910;2023-07-02T07:24:09;12.25;;;4.93;;
55728;SDS011;41633;39.720;2.910;2023-07-02T07:26:35;9.02;;;3.90;;
55728;SDS011;41633;39.720;2.910;2023-07-02T07:29:03;11.60;;;4.00;;
55728;SDS011;41633;39.720;2.910;2023-07-02T07:31:29;10.15;;;4.03;;
55728;SDS011;41633;39.720;2.910;2023-07-02T07:33:55;8.57;;;3.90;;
55728;SDS011;41633;39.720;2.910;2023-07-02T07:36:21;8.80;;;3.50;;
55728;SDS011;41633;39.720;2.910;2023-07-02T07:38:47;9.88;;;3.60;;
55728;SDS011;41633;39.720;2.910;2023-07-02T07:41:14;8.13;;;3.45;;
55728;SDS011;41633;39.720;2.910;2023-07-02T07:43:40;9.32;;;4.10;;
55728;SDS011;41633;39.720;2.910;2023-07-02T07:46:06;8.25;;;3.55;;
55728;SDS011;41633;39.720;2.910;2023-07-02T07:48:33;10.70;;;4.28;;
55728;SDS011;41633;39.720;2.910;2023-07-02T07:50:59;8.95;;;3.78;;
55728;SDS011;41633;39.720;2.910;2023-07-02T07:53:25;9.35;;;4.18;;
55728;SDS011;41633;39.720;2.910;2023-07-02T07:55:51;9.70;;;3.80;;
55728;SDS011;41633;39.720;2.910;2023-07-02T07:58:17;8.35;;;3.80;;
55728;SDS011;41633;39.720;2.910;2023-07-02T08:00:44;9.13;;;4.00;;
55728;SDS011;41633;39.720;2.910;2023-07-02T08:03:10;8.90;;;3.58;;
55728;SDS011;41633;39.720;2.910;2023-07-02T08:05:36;9.13;;;3.55;;
55728;SDS011;41633;39.720;2.910;2023-07-02T08:08:02;9.77;;;3.88;;
55728;SDS011;41633;39.720;2.910;2023-07-02T08:10:28;8.65;;;4.03;;
55728;SDS011;41633;39.720;2.910;2023-07-02T08:12:55;10.23;;;4.15;;
55728;SDS011;41633;39.720;2.910;2023-07-02T08:15:21;9.20;;;3.95;;
55728;SDS011;41633;39.720;2.910;2023-07-02T08:17:47;8.80;;;3.50;;
55728;SDS011;41633;39.720;2.910;2023-07-02T08:20:14;9.70;;;3.85;;
55728;SDS011;41633;39.720;2.910;2023-07-02T08:22:42;9.18;;;3.78;;
55728;SDS011;41633;39.720;2.910;2023-07-02T08:25:08;8.43;;;3.90;;
55728;SDS011;41633;39.720;2.910;2023-07-02T08:27:34;9.65;;;3.90;;
55728;SDS011;41633;39.720;2.910;2023-07-02T08:30:00;8.70;;;3.80;;
55728;SDS011;41633;39.720;2.910;2023-07-02T08:32:27;7.90;;;3.60;;
55728;SDS011;41633;39.720;2.910;2023-07-02T08:34:53;8.63;;;3.83;;
55728;SDS011;41633;39.720;2.910;2023-07-02T08:37:22;8.02;;;3.58;;
55728;SDS011;41633;39.720;2.910;2023-07-02T08:39:49;9.65;;;3.70;;
55728;SDS011;41633;39.720;2.910;2023-07-02T08:42:17;9.23;;;3.95;;
55728;SDS011;41633;39.720;2.910;2023-07-02T08:44:46;9.45;;;4.30;;
55728;SDS011;41633;39.720;2.910;2023-07-02T08:47:13;9.88;;;4.32;;
55728;SDS011;41633;39.720;2.910;2023-07-02T08:49:39;10.07;;;3.75;;
55728;SDS011;41633;39.720;2.910;2023-07-02T08:52:06;10.20;;;4.13;;
55728;SDS011;41633;39.720;2.910;2023-07-02T08:54:32;7.43;;;3.42;;
55728;SDS011;41633;39.720;2.910;2023-07-02T08:56:58;10.15;;;4.00;;
55728;SDS011;41633;39.720;2.910;2023-07-02T08:59:29;9.32;;;4.00;;
55728;SDS011;41633;39.720;2.910;2023-07-02T09:01:55;9.63;;;4.07;;
55728;SDS011;41633;39.720;2.910;2023-07-02T09:04:23;8.98;;;3.63;;
55728;SDS011;41633;39.720;2.910;2023-07-02T09:06:50;9.57;;;3.97;;
55728;SDS011;41633;39.720;2.910;2023-07-02T09:09:17;8.15;;;3.75;;
55728;SDS011;41633;39.720;2.910;2023-07-02T09:11:47;10.07;;;3.83;;
55728;SDS011;41633;39.720;2.910;2023-07-02T09:14:24;9.10;;;3.72;;
55728;SDS011;41633;39.720;2.910;2023-07-02T09:17:07;9.45;;;4.38;;
55728;SDS011;41633;39.720;2.910;2023-07-02T09:19:34;8.13;;;3.88;;
55728;SDS011;41633;39.720;2.910;2023-07-02T09:22:01;10.23;;;4.10;;
55728;SDS011;41633;39.720;2.910;2023-07-02T09:24:29;9.45;;;4.20;;
55728;SDS011;41633;39.720;2.910;2023-07-02T09:26:58;9.18;;;3.95;;
55728;SDS011;41633;39.720;2.910;2023-07-02T09:29:28;8.77;;;4.20;;
55728;SDS011;41633;39.720;2.910;2023-07-02T09:31:55;8.95;;;3.88;;
55728;SDS011;41633;39.720;2.910;2023-07-02T09:34:26;10.40;;;4.95;;
55728;SDS011;41633;39.720;2.910;2023-07-02T09:36:53;9.35;;;4.05;;
55728;SDS011;41633;39.720;2.910;2023-07-02T09:39:20;9.38;;;3.85;;
55728;SDS011;41633;39.720;2.910;2023-07-02T09:41:49;8.02;;;3.70;;
55728;SDS011;41633;39.720;2.910;2023-07-02T09:44:16;8.68;;;3.50;;
55728;SDS011;41633;39.720;2.910;2023-07-02T09:46:54;8.07;;;3.50;;
55728;SDS011;41633;39.720;2.910;2023-07-02T09:49:27;9.30;;;3.78;;
55728;SDS011;41633;39.720;2.910;2023-07-02T09:51:58;9.77;;;4.05;;
55728;SDS011;41633;39.720;2.910;2023-07-02T09:54:25;11.40;;;4.20;;
55728;SDS011;41633;39.720;2.910;2023-07-02T09:56:51;7.55;;;3.38;;
55728;SDS011;41633;39.720;2.910;2023-07-02T09:59:17;8.55;;;3.78;;
55728;SDS011;41633;39.720;2.910;2023-07-02T10:01:44;8.25;;;3.72;;
55728;SDS011;41633;39.720;2.910;2023-07-02T10:04:14;10.32;;;4.25;;
55728;SDS011;41633;39.720;2.910;2023-07-02T10:06:50;10.05;;;4.55;;
55728;SDS011;41633;39.720;2.910;2023-07-02T10:09:17;10.23;;;4.55;;
55728;SDS011;41633;39.720;2.910;2023-07-02T10:11:43;9.43;;;4.78;;
55728;SDS011;41633;39.720;2.910;2023-07-02T10:14:10;10.07;;;4.72;;
55728;SDS011;41633;39.720;2.910;2023-07-02T10:16:49;10.35;;;4.70;;
55728;SDS011;41633;39.720;2.910;2023-07-02T10:19:16;9.50;;;4.70;;
55728;SDS011;41633;39.720;2.910;2023-07-02T10:21:42;9.65;;;4.45;;
55728;SDS011;41633;39.720;2.910;2023-07-02T10:24:14;10.40;;;4.60;;
55728;SDS011;41633;39.720;2.910;2023-07-02T10:26:55;10.15;;;3.88;;
55728;SDS011;41633;39.720;2.910;2023-07-02T10:29:22;10.23;;;4.90;;
55728;SDS011;41633;39.720;2.910;2023-07-02T10:31:56;10.13;;;4.32;;
55728;SDS011;41633;39.720;2.910;2023-07-02T10:36:55;10.02;;;4.72;;
55728;SDS011;41633;39.720;2.910;2023-07-02T10:39:21;9.57;;;4.45;;
55728;SDS011;41633;39.720;2.910;2023-07-02T10:41:47;14.75;;;4.82;;
55728;SDS011;41633;39.720;2.910;2023-07-02T10:44:14;10.27;;;4.68;;
55728;SDS011;41633;39.720;2.910;2023-07-02T10:46:44;10.50;;;4.82;;
55728;SDS011;41633;39.720;2.910;2023-07-02T10:49:10;8.75;;;4.80;;
55728;SDS011;41633;39.720;2.910;2023-07-02T10:51:37;10.32;;;4.85;;
55728;SDS011;41633;39.720;2.910;2023-07-02T10:54:03;9.55;;;4.90;;
55728;SDS011;41633;39.720;2.910;2023-07-02T10:56:30;10.15;;;4.65;;
55728;SDS011;41633;39.720;2.910;2023-07-02T10:58:57;9.50;;;4.85;;
55728;SDS011;41633;39.720;2.910;2023-07-02T11:04:00;10.18;;;4.68;;
55728;SDS011;41633;39.720;2.910;2023-07-02T11:06:27;9.60;;;4.40;;
55728;SDS011;41633;39.720;2.910;2023-07-02T11:08:53;9.43;;;4.40;;
55728;SDS011;41633;39.720;2.910;2023-07-02T11:11:20;9.05;;;4.53;;
55728;SDS011;41633;39.720;2.910;2023-07-02T11:13:50;9.30;;;4.78;;
55728;SDS011;41633;39.720;2.910;2023-07-02T11:16:26;8.88;;;4.20;;
55728;SDS011;41633;39.720;2.910;2023-07-02T11:19:07;8.43;;;4.03;;
55728;SDS011;41633;39.720;2.910;2023-07-02T11:21:33;8.35;;;3.92;;
55728;SDS011;41633;39.720;2.910;2023-07-02T11:24:03;9.52;;;4.63;;
55728;SDS011;41633;39.720;2.910;2023-07-02T11:26:39;8.60;;;4.47;;
55728;SDS011;41633;39.720;2.910;2023-07-02T11:29:12;8.30;;;4.13;;
55728;SDS011;41633;39.720;2.910;2023-07-02T11:31:38;9.02;;;4.35;;
55728;SDS011;41633;39.720;2.910;2023-07-02T11:34:13;9.60;;;4.30;;
55728;SDS011;41633;39.720;2.910;2023-07-02T11:36:40;9.30;;;4.32;;
55728;SDS011;41633;39.720;2.910;2023-07-02T11:39:06;9.15;;;3.97;;
55728;SDS011;41633;39.720;2.910;2023-07-02T11:41:39;8.98;;;4.35;;
55728;SDS011;41633;39.720;2.910;2023-07-02T11:44:05;9.00;;;4.38;;
55728;SDS011;41633;39.720;2.910;2023-07-02T11:46:32;9.88;;;4.40;;
55728;SDS011;41633;39.720;2.910;2023-07-02T11:48:59;9.32;;;4.35;;
55728;SDS011;41633;39.720;2.910;2023-07-02T11:51:25;9.80;;;4.82;;
55728;SDS011;41633;39.720;2.910;2023-07-02T11:53:52;9.10;;;4.38;;
55728;SDS011;41633;39.720;2.910;2023-07-02T11:56:18;9.75;;;4.60;;
55728;SDS011;41633;39.720;2.910;2023-07-02T11:58:44;9.57;;;4.60;;
55728;SDS011;41633;39.720;2.910;2023-07-02T12:01:10;7.78;;;3.53;;
55728;SDS011;41633;39.720;2.910;2023-07-02T12:03:36;11.00;;;4.85;;
55728;SDS011;41633;39.720;2.910;2023-07-02T12:06:02;10.02;;;4.05;;
55728;SDS011;41633;39.720;2.910;2023-07-02T12:08:29;8.50;;;4.07;;
55728;SDS011;41633;39.720;2.910;2023-07-02T12:10:55;7.90;;;4.07;;
55728;SDS011;41633;39.720;2.910;2023-07-02T12:13:21;11.07;;;4.05;;
55728;SDS011;41633;39.720;2.910;2023-07-02T12:15:48;10.80;;;4.75;;
55728;SDS011;41633;39.720;2.910;2023-07-02T12:18:16;10.32;;;4.47;;
55728;SDS011;41633;39.720;2.910;2023-07-02T12:20:42;8.35;;;4.15;;
55728;SDS011;41633;39.720;2.910;2023-07-02T12:23:09;9.00;;;4.00;;
55728;SDS011;41633;39.720;2.910;2023-07-02T12:25:38;8.57;;;3.80;;
55728;SDS011;41633;39.720;2.910;2023-07-02T12:28:04;10.75;;;4.68;;
55728;SDS011;41633;39.720;2.910;2023-07-02T12:30:31;8.43;;;3.83;;
55728;SDS011;41633;39.720;2.910;2023-07-02T12:32:57;9.18;;;4.35;;
55728;SDS011;41633;39.720;2.910;2023-07-02T12:35:23;8.70;;;4.30;;
55728;SDS011;41633;39.720;2.910;2023-07-02T12:37:50;9.68;;;4.78;;
55728;SDS011;41633;39.720;2.910;2023-07-02T12:40:17;9.95;;;4.72;;
55728;SDS011;41633;39.720;2.910;2023-07-02T12:42:44;9.88;;;4.57;;
55728;SDS011;41633;39.720;2.910;2023-07-02T12:45:11;11.07;;;4.57;;
55728;SDS011;41633;39.720;2.910;2023-07-02T12:47:37;9.52;;;4.68;;
55728;SDS011;41633;39.720;2.910;2023-07-02T12:50:04;11.18;;;4.68;;
55728;SDS011;41633;39.720;2.910;2023-07-02T12:52:30;10.13;;;4.65;;
55728;SDS011;41633;39.720;2.910;2023-07-02T12:54:57;9.57;;;4.53;;
55728;SDS011;41633;39.720;2.910;2023-07-02T12:57:23;9.82;;;4.45;;
55728;SDS011;41633;39.720;2.910;2023-07-02T12:59:51;9.85;;;5.20;;
55728;SDS011;41633;39.720;2.910;2023-07-02T13:02:17;10.48;;;5.50;;
55728;SDS011;41633;39.720;2.910;2023-07-02T13:04:44;11.70;;;6.45;;
55728;SDS011;41633;39.720;2.910;2023-07-02T13:07:10;10.65;;;5.95;;
55728;SDS011;41633;39.720;2.910;2023-07-02T13:09:36;12.93;;;7.88;;
55728;SDS011;41633;39.720;2.910;2023-07-02T13:12:02;11.85;;;5.35;;
55728;SDS011;41633;39.720;2.910;2023-07-02T13:14:28;11.18;;;6.15;;
55728;SDS011;41633;39.720;2.910;2023-07-02T13:16:54;10.65;;;5.40;;
55728;SDS011;41633;39.720;2.910;2023-07-02T13:19:21;10.25;;;4.70;;
55728;SDS011;41633;39.720;2.910;2023-07-02T13:21:47;11.45;;;5.10;;
55728;SDS011;41633;39.720;2.910;2023-07-02T13:24:13;9.13;;;4.97;;
55728;SDS011;41633;39.720;2.910;2023-07-02T13:26:39;9.13;;;4.70;;
55728;SDS011;41633;39.720;2.910;2023-07-02T13:29:05;7.88;;;4.00;;
55728;SDS011;41633;39.720;2.910;2023-07-02T13:31:31;10.25;;;4.85;;
55728;SDS011;41633;39.720;2.910;2023-07-02T13:33:58;10.63;;;5.32;;
55728;SDS011;41633;39.720;2.910;2023-07-02T13:36:24;9.65;;;4.15;;
55728;SDS011;41633;39.720;2.910;2023-07-02T13:38:50;12.88;;;4.90;;
55728;SDS011;41633;39.720;2.910;2023-07-02T13:41:16;9.52;;;4.40;;
55728;SDS011;41633;39.720;2.910;2023-07-02T13:43:43;11.18;;;4.85;;
55728;SDS011;41633;39.720;2.910;2023-07-02T13:46:09;10.45;;;4.63;;
55728;SDS011;41633;39.720;2.910;2023-07-02T13:48:35;10.38;;;4.40;;
55728;SDS011;41633;39.720;2.910;2023-07-02T13:51:01;10.48;;;4.78;;
55728;SDS011;41633;39.720;2.910;2023-07-02T13:53:27;10.07;;;4.72;;
55728;SDS011;41633;39.720;2.910;2023-07-02T13:55:54;9.73;;;4.43;;
55728;SDS011;41633;39.720;2.910;2023-07-02T13:58:20;10.85;;;4.32;;
55728;SDS011;41633;39.720;2.910;2023-07-02T14:00:46;10.27;;;4.70;;
55728;SDS011;41633;39.720;2.910;2023-07-02T14:03:12;9.45;;;4.38;;
55728;SDS011;41633;39.720;2.910;2023-07-02T14:05:38;10.90;;;4.20;;
55728;SDS011;41633;39.720;2.910;2023-07-02T14:08:04;10.13;;;4.57;;
55728;SDS011;41633;39.720;2.910;2023-07-02T14:10:31;10.48;;;4.18;;
55728;SDS011;41633;39.720;2.910;2023-07-02T14:12:57;10.13;;;4.25;;
55728;SDS011;41633;39.720;2.910;2023-07-02T14:15:24;9.88;;;4.53;;
55728;SDS011;41633;39.720;2.910;2023-07-02T14:17:50;10.57;;;4.70;;
55728;SDS011;41633;39.720;2.910;2023-07-02T14:20:16;9.60;;;4.75;;
55728;SDS011;41633;39.720;2.910;2023-07-02T14:22:43;10.05;;;5.05;;
55728;SDS011;41633;39.720;2.910;2023-07-02T14:25:09;10.10;;;5.10;;
55728;SDS011;41633;39.720;2.910;2023-07-02T14:27:35;8.95;;;4.78;;
55728;SDS011;41633;39.720;2.910;2023-07-02T14:30:01;10.43;;;4.85;;
55728;SDS011;41633;39.720;2.910;2023-07-02T14:32:32;10.82;;;4.97;;
55728;SDS011;41633;39.720;2.910;2023-07-02T14:35:00;10.15;;;5.00;;
55728;SDS011;41633;39.720;2.910;2023-07-02T14:37:26;9.68;;;4.95;;
55728;SDS011;41633;39.720;2.910;2023-07-02T14:39:52;10.40;;;4.97;;
55728;SDS011;41633;39.720;2.910;2023-07-02T14:42:19;12.02;;;5.25;;
55728;SDS011;41633;39.720;2.910;2023-07-02T14:44:45;10.55;;;4.95;;
55728;SDS011;41633;39.720;2.910;2023-07-02T14:47:11;11.30;;;5.25;;